Cabarete, Dominican Republic
Current Conditions -  °F | °C
As of 11:00 AM on Saturday 25 Oct 2014 (Local Time) from MDPP Reporting Station
Broken Clouds Broken Clouds  
Wind Chill: 32°   Ceiling: 30000
Heat Index: 38°   Visibility: 6mi
Dew Point: 24°   Wind: 12mph
Humidity: 62%   Direction: 60°ENE
Pressure: 29.85"   Gusts: NA
Location:  19.57°N, 70.02°W
Report Text: MDPP 251500Z 06010KT 9999 FEW022 BKN300 32/24 Q1011
Loading
Personal Weather Stations






























Interactive Weather Map
Tropical Storm Tracking
New forecast layout! Learn more

10-Day Weather Forecast

Advertisements
Track Severe Weather on mobile